createdAt,value
2018-02-21T00:02:06.566Z,-1.10
2018-02-21T00:04:35.406Z,-1.10
2018-02-21T00:07:03.843Z,-1.10
2018-02-21T00:09:32.027Z,-1.20
2018-02-21T00:12:00.103Z,-0.90
2018-02-21T00:14:28.274Z,-1.00
2018-02-21T00:16:56.462Z,-0.80
2018-02-21T00:19:24.626Z,-0.80
2018-02-21T00:21:52.810Z,-0.80
2018-02-21T00:24:20.893Z,-0.90
2018-02-21T00:26:49.063Z,-0.90
2018-02-21T00:29:17.130Z,-1.00
2018-02-21T00:31:45.218Z,-0.90
2018-02-21T00:34:13.282Z,-0.80
2018-02-21T00:36:41.353Z,-0.80
2018-02-21T00:39:09.461Z,-0.70
2018-02-21T00:41:37.629Z,-0.80
2018-02-21T00:44:05.687Z,-0.70
2018-02-21T00:46:34.321Z,-0.80
2018-02-21T00:49:04.274Z,-0.80
2018-02-21T00:51:32.374Z,-0.90
2018-02-21T00:54:00.526Z,-0.90
2018-02-21T00:56:28.643Z,-0.80
2018-02-21T00:58:56.813Z,-0.60
2018-02-21T01:01:24.890Z,-0.80
2018-02-21T01:03:52.958Z,-0.80
2018-02-21T01:06:21.024Z,-0.80
2018-02-21T01:08:49.105Z,-0.80
2018-02-21T01:11:17.182Z,-0.80
2018-02-21T01:13:45.281Z,-0.80
2018-02-21T01:16:13.355Z,-0.90
2018-02-21T01:18:41.510Z,-0.80
2018-02-21T01:21:09.706Z,-0.70
2018-02-21T01:23:37.794Z,-0.80
2018-02-21T01:26:05.870Z,-0.70
2018-02-21T01:28:35.550Z,-0.80
2018-02-21T01:31:04.779Z,-0.90
2018-02-21T01:33:32.845Z,-0.90
2018-02-21T01:36:00.930Z,-0.90
2018-02-21T01:38:29.518Z,-0.90
2018-02-21T01:40:57.698Z,-0.90
2018-02-21T01:43:26.587Z,-0.90
2018-02-21T01:45:54.659Z,-0.80
2018-02-21T01:48:22.850Z,-0.80
2018-02-21T01:50:52.735Z,-1.10
2018-02-21T01:53:20.814Z,-1.10
2018-02-21T01:55:48.882Z,-1.00
2018-02-21T01:58:17.661Z,-1.00
2018-02-21T02:00:45.741Z,-1.20
2018-02-21T02:03:13.866Z,-1.20
2018-02-21T02:05:41.953Z,-1.00
2018-02-21T02:08:10.038Z,-1.00
2018-02-21T02:10:38.203Z,-0.90
2018-02-21T02:13:06.286Z,-0.90
2018-02-21T02:15:35.484Z,-0.90
2018-02-21T02:18:03.650Z,-1.00
2018-02-21T02:20:31.722Z,-0.90
2018-02-21T02:22:59.813Z,-0.80
2018-02-21T02:25:27.981Z,-0.80
2018-02-21T02:27:56.162Z,-0.80
2018-02-21T02:30:24.226Z,-1.00
2018-02-21T02:32:53.210Z,-1.20
2018-02-21T02:35:21.273Z,-0.90
2018-02-21T02:37:49.350Z,-1.20
2018-02-21T02:40:17.474Z,-1.30
2018-02-21T02:42:46.626Z,-1.20
2018-02-21T02:45:14.739Z,-1.00
2018-02-21T02:47:42.825Z,-0.90
2018-02-21T02:50:10.892Z,-0.90
2018-02-21T02:52:39.070Z,-1.10
2018-02-21T02:55:07.248Z,-1.20
2018-02-21T02:57:36.639Z,-1.30
2018-02-21T03:00:06.604Z,-1.20
2018-02-21T03:02:35.884Z,-1.20
2018-02-21T03:05:03.962Z,-1.00
2018-02-21T03:07:32.038Z,-1.00
2018-02-21T03:10:00.119Z,-1.00
2018-02-21T03:12:28.290Z,-1.10
2018-02-21T03:14:56.366Z,-0.90
2018-02-21T03:17:24.549Z,-1.00
2018-02-21T03:19:52.620Z,-1.10
2018-02-21T03:22:20.798Z,-1.10
2018-02-21T03:24:48.982Z,-1.00
2018-02-21T03:27:17.053Z,-0.90
2018-02-21T03:29:45.135Z,-1.00
2018-02-21T03:32:13.205Z,-0.90
2018-02-21T03:34:41.379Z,-0.70
2018-02-21T03:37:09.461Z,-0.70
2018-02-21T03:39:37.546Z,-0.70
2018-02-21T03:42:07.116Z,-0.90
2018-02-21T03:44:36.914Z,-1.10
2018-02-21T03:47:04.984Z,-1.20
2018-02-21T03:49:34.393Z,-1.20
2018-02-21T03:52:02.526Z,-0.90
2018-02-21T03:54:30.603Z,-1.20
2018-02-21T03:56:58.848Z,-1.00
2018-02-21T03:59:26.922Z,-1.00
2018-02-21T04:01:55.034Z,-0.90
2018-02-21T04:04:23.113Z,-0.90
2018-02-21T04:06:52.327Z,-1.00
2018-02-21T04:09:20.391Z,-1.00
2018-02-21T04:11:48.565Z,-0.90
2018-02-21T04:14:17.586Z,-0.90
2018-02-21T04:16:45.645Z,-0.90
2018-02-21T04:19:13.735Z,-0.80
2018-02-21T04:21:41.890Z,-0.70
2018-02-21T04:24:10.072Z,-1.00
2018-02-21T04:26:38.354Z,-0.90
2018-02-21T04:29:06.869Z,-1.00
2018-02-21T04:31:37.593Z,-0.90
2018-02-21T04:34:06.796Z,-1.00
2018-02-21T04:36:34.957Z,-0.90
2018-02-21T04:39:03.781Z,-1.00
2018-02-21T04:41:32.626Z,-1.00
2018-02-21T04:44:00.690Z,-1.10
2018-02-21T04:46:28.750Z,-1.00
2018-02-21T04:48:56.831Z,-1.20
2018-02-21T04:51:24.889Z,-1.10
2018-02-21T04:53:53.738Z,-1.00
2018-02-21T04:59:35.521Z,-1.20
2018-02-21T05:02:04.394Z,-1.30
2018-02-21T05:04:32.513Z,-1.40
2018-02-21T05:07:00.572Z,-1.50
2018-02-21T05:09:28.684Z,-1.30
2018-02-21T05:11:58.280Z,-1.30
2018-02-21T05:14:26.360Z,-1.20
2018-02-21T05:16:54.422Z,-1.20
2018-02-21T05:19:22.522Z,-1.30
2018-02-21T05:21:50.590Z,-1.10
2018-02-21T05:24:18.666Z,-1.10
2018-02-21T05:26:46.758Z,-1.10
2018-02-21T05:29:15.626Z,-1.00
2018-02-21T05:31:43.698Z,-0.90
2018-02-21T05:34:11.795Z,-1.10
2018-02-21T05:36:39.858Z,-1.10
2018-02-21T05:39:07.926Z,-1.20
2018-02-21T05:41:35.986Z,-0.90
2018-02-21T05:44:04.078Z,-0.90
2018-02-21T05:46:32.166Z,-1.00
2018-02-21T05:49:00.240Z,-1.20
2018-02-21T05:51:28.314Z,-1.10
2018-02-21T05:53:56.382Z,-1.10
2018-02-21T05:56:24.449Z,-1.20
2018-02-21T05:58:52.530Z,-1.30
2018-02-21T06:01:20.589Z,-1.20
2018-02-21T06:03:48.662Z,-1.10
2018-02-21T06:06:16.735Z,-0.90
2018-02-21T06:08:44.810Z,-1.00
2018-02-21T06:11:12.993Z,-1.10
2018-02-21T06:13:41.067Z,-1.10
2018-02-21T06:16:09.130Z,-1.10
2018-02-21T06:18:38.678Z,-0.90
2018-02-21T06:21:07.869Z,-1.00
2018-02-21T06:23:35.942Z,-1.00
2018-02-21T06:26:04.051Z,-1.10
2018-02-21T06:28:32.119Z,-1.10
2018-02-21T06:31:00.196Z,-1.10
2018-02-21T06:33:28.774Z,-1.30
2018-02-21T06:35:56.851Z,-1.20
2018-02-21T06:38:24.910Z,-1.20
2018-02-21T06:40:52.998Z,-1.10
2018-02-21T06:43:21.077Z,-1.10
2018-02-21T06:45:49.158Z,-1.20
2018-02-21T06:48:17.262Z,-1.10
2018-02-21T06:50:45.688Z,-1.20
2018-02-21T06:53:13.742Z,-1.10
2018-02-21T06:55:42.598Z,-1.20
2018-02-21T06:58:10.692Z,-1.30
2018-02-21T07:00:38.746Z,-1.40
2018-02-21T07:03:06.821Z,-1.60
2018-02-21T07:05:34.906Z,-1.70
2018-02-21T07:08:02.970Z,-1.70
2018-02-21T07:10:31.072Z,-1.60
2018-02-21T07:12:59.230Z,-1.60
2018-02-21T07:15:27.393Z,-1.70
2018-02-21T07:17:55.486Z,-1.60
2018-02-21T07:20:23.567Z,-1.50
2018-02-21T07:22:53.243Z,-1.50
2018-02-21T07:25:21.317Z,-1.40
2018-02-21T07:27:49.434Z,-1.40
2018-02-21T07:30:17.609Z,-1.40
2018-02-21T07:32:45.679Z,-1.50
2018-02-21T07:35:13.890Z,-1.30
2018-02-21T07:37:41.951Z,-1.30
2018-02-21T07:40:10.027Z,-1.20
2018-02-21T07:42:40.051Z,-1.40
2018-02-21T07:45:09.568Z,-1.50
2018-02-21T07:47:38.753Z,-1.40
2018-02-21T07:50:06.919Z,-1.50
2018-02-21T07:52:34.978Z,-1.30
2018-02-21T07:55:03.060Z,-1.20
2018-02-21T07:57:31.117Z,-1.00
2018-02-21T07:59:59.195Z,-0.70
2018-02-21T08:02:27.277Z,-0.60
2018-02-21T08:04:55.334Z,-0.50
2018-02-21T08:07:23.397Z,-0.30
2018-02-21T08:09:52.654Z,-0.20
2018-02-21T08:12:20.710Z,-0.20
2018-02-21T08:14:48.782Z,-0.10
2018-02-21T08:17:16.851Z,-0.10
2018-02-21T08:19:44.934Z,-0.10
2018-02-21T08:22:13.038Z,0.00
2018-02-21T08:24:41.110Z,0.30
2018-02-21T08:27:09.194Z,0.40
2018-02-21T08:29:37.270Z,0.50
2018-02-21T08:32:05.358Z,0.90
2018-02-21T08:34:33.435Z,0.60
2018-02-21T08:37:01.599Z,0.50
2018-02-21T08:39:29.682Z,0.40
2018-02-21T08:41:57.747Z,0.40
2018-02-21T08:44:25.825Z,0.70
2018-02-21T08:46:53.901Z,0.80
2018-02-21T08:49:21.961Z,1.00
2018-02-21T08:51:50.027Z,0.90
2018-02-21T08:54:18.100Z,1.20
2018-02-21T08:56:46.169Z,1.10
2018-02-21T08:59:14.221Z,0.60
2018-02-21T09:01:43.066Z,0.50
2018-02-21T09:04:11.150Z,0.50
2018-02-21T09:06:40.341Z,0.30
2018-02-21T09:09:09.534Z,0.30
2018-02-21T09:11:37.635Z,0.10
2018-02-21T09:14:05.693Z,0.30
2018-02-21T09:16:33.858Z,0.30
2018-02-21T09:19:01.855Z,0.30
2018-02-21T09:21:29.931Z,0.60
2018-02-21T09:23:57.994Z,0.90
2018-02-21T09:26:26.066Z,0.60
2018-02-21T09:28:54.128Z,0.70
2018-02-21T09:31:22.190Z,0.90
2018-02-21T09:33:51.045Z,0.80
2018-02-21T09:36:19.121Z,1.00
2018-02-21T09:38:47.183Z,1.10
2018-02-21T09:41:15.853Z,1.30
2018-02-21T09:43:43.958Z,1.20
2018-02-21T09:46:12.025Z,1.30
2018-02-21T09:48:40.107Z,1.60
2018-02-21T09:51:08.294Z,1.90
2018-02-21T09:53:36.370Z,2.10
2018-02-21T09:56:04.438Z,2.20
2018-02-21T09:58:32.513Z,2.60
2018-02-21T10:01:00.636Z,2.50
2018-02-21T10:03:28.638Z,2.30
2018-02-21T10:05:56.704Z,2.70
2018-02-21T10:08:24.826Z,2.60
2018-02-21T10:10:52.910Z,2.60
2018-02-21T10:13:20.992Z,2.50
2018-02-21T10:15:49.158Z,2.20
2018-02-21T10:18:17.229Z,2.50
2018-02-21T10:20:45.310Z,2.80
2018-02-21T10:23:13.491Z,3.00
2018-02-21T10:25:41.646Z,3.10
2018-02-21T10:28:10.356Z,3.00
2018-02-21T10:30:38.601Z,3.00
2018-02-21T10:33:06.653Z,3.00
2018-02-21T10:35:35.474Z,2.80
2018-02-21T10:38:03.545Z,2.90
2018-02-21T10:40:31.994Z,3.40
2018-02-21T10:43:00.138Z,3.80
2018-02-21T10:45:28.209Z,4.40
2018-02-21T10:47:56.282Z,3.10
2018-02-21T10:50:24.715Z,3.00
2018-02-21T10:52:53.565Z,2.80
2018-02-21T10:55:22.370Z,3.10
2018-02-21T10:57:50.557Z,3.60
2018-02-21T11:00:24.138Z,4.60
2018-02-21T11:02:52.345Z,4.20
2018-02-21T11:05:20.404Z,3.40
2018-02-21T11:07:48.582Z,3.10
2018-02-21T11:10:16.645Z,3.40
2018-02-21T11:12:44.715Z,3.20
2018-02-21T11:15:13.609Z,3.70
2018-02-21T11:17:41.686Z,4.40
2018-02-21T11:20:11.642Z,5.70
2018-02-21T11:22:40.929Z,6.10
2018-02-21T11:25:09.211Z,6.20
2018-02-21T11:27:37.283Z,6.10
2018-02-21T11:30:05.335Z,6.00
2018-02-21T11:32:33.442Z,5.80
2018-02-21T11:35:01.500Z,6.10
2018-02-21T11:37:29.554Z,5.70
2018-02-21T11:39:57.669Z,6.00
2018-02-21T11:42:25.726Z,5.50
2018-02-21T11:44:53.822Z,5.60
2018-02-21T11:47:21.897Z,5.90
2018-02-21T11:49:49.962Z,5.90
2018-02-21T11:52:18.014Z,5.70
2018-02-21T11:54:46.075Z,6.00
2018-02-21T11:57:14.898Z,6.50
2018-02-21T11:59:42.994Z,6.60
2018-02-21T12:02:11.285Z,6.10
2018-02-21T12:04:39.368Z,6.70
2018-02-21T12:07:07.411Z,6.80
2018-02-21T12:09:35.490Z,6.50
2018-02-21T12:12:03.571Z,6.00
2018-02-21T12:14:31.634Z,5.80
2018-02-21T12:16:59.696Z,6.60
2018-02-21T12:19:27.810Z,6.80
2018-02-21T12:21:55.892Z,6.20
2018-02-21T12:24:23.950Z,5.70
2018-02-21T12:26:52.150Z,6.00
2018-02-21T12:29:20.242Z,6.60
2018-02-21T12:31:49.087Z,7.00
2018-02-21T12:34:17.170Z,7.00
2018-02-21T12:36:45.235Z,7.70
2018-02-21T12:39:18.850Z,7.80
2018-02-21T12:41:46.914Z,7.60
2018-02-21T12:44:14.973Z,7.40
2018-02-21T12:46:43.095Z,7.70
2018-02-21T12:49:12.577Z,6.90
2018-02-21T12:51:41.757Z,7.10
2018-02-21T12:54:11.706Z,7.10
2018-02-21T12:56:39.800Z,7.30
2018-02-21T12:59:07.862Z,8.40
2018-02-21T13:01:35.957Z,8.50
2018-02-21T13:04:04.030Z,8.00
2018-02-21T13:06:32.098Z,8.10
2018-02-21T13:09:00.155Z,7.90
2018-02-21T13:11:28.230Z,8.20
2018-02-21T13:13:56.301Z,7.20
2018-02-21T13:16:24.789Z,7.10
2018-02-21T13:18:52.899Z,7.30
2018-02-21T13:21:21.033Z,8.20
2018-02-21T13:23:49.050Z,8.60
2018-02-21T13:26:17.114Z,9.20
2018-02-21T13:28:45.928Z,8.50
2018-02-21T13:31:14.249Z,7.60
2018-02-21T13:33:42.395Z,6.40
2018-02-21T13:36:10.470Z,6.10
2018-02-21T13:38:38.649Z,5.60
2018-02-21T13:41:06.702Z,4.80
2018-02-21T13:43:34.790Z,4.70
2018-02-21T13:46:02.858Z,4.20
2018-02-21T13:48:30.934Z,3.20
2018-02-21T13:50:59.014Z,3.40
2018-02-21T13:53:27.092Z,3.50
2018-02-21T13:55:55.166Z,2.90
2018-02-21T13:58:23.238Z,2.90
2018-02-21T14:00:52.167Z,2.80
2018-02-21T14:03:20.243Z,3.20
2018-02-21T14:05:48.313Z,3.30
2018-02-21T14:08:16.382Z,3.80
2018-02-21T14:10:44.563Z,3.80
2018-02-21T14:13:13.938Z,3.60
2018-02-21T14:15:42.867Z,3.70
2018-02-21T14:18:10.925Z,3.40
2018-02-21T14:20:39.016Z,3.40
2018-02-21T14:23:07.083Z,3.20
2018-02-21T14:25:35.277Z,2.50
2018-02-21T14:28:03.336Z,2.90
2018-02-21T14:30:31.410Z,3.00
2018-02-21T14:32:59.485Z,3.00
2018-02-21T14:35:27.554Z,3.10
2018-02-21T14:37:55.639Z,3.10
2018-02-21T14:40:23.712Z,2.90
2018-02-21T14:42:53.037Z,2.90
2018-02-21T14:45:21.114Z,3.00
2018-02-21T14:47:49.238Z,2.70
2018-02-21T14:50:17.317Z,2.70
2018-02-21T14:52:45.378Z,2.70
2018-02-21T14:55:13.506Z,2.70
2018-02-21T14:57:41.577Z,2.60
2018-02-21T15:00:09.658Z,2.60
2018-02-21T15:02:37.727Z,2.70
2018-02-21T15:05:05.814Z,2.80
2018-02-21T15:07:33.897Z,2.70
2018-02-21T15:10:02.066Z,2.60
2018-02-21T15:12:30.177Z,2.70
2018-02-21T15:14:58.995Z,2.50
2018-02-21T15:17:27.075Z,2.40
2018-02-21T15:19:55.142Z,2.40
2018-02-21T15:22:23.974Z,2.40
2018-02-21T15:24:53.035Z,2.40
2018-02-21T15:27:21.104Z,2.30
2018-02-21T15:29:49.171Z,2.60
2018-02-21T15:32:18.640Z,2.50
2018-02-21T15:34:46.719Z,2.30
2018-02-21T15:37:14.782Z,2.30
2018-02-21T15:39:44.571Z,2.40
2018-02-21T15:42:13.775Z,2.40
2018-02-21T15:44:41.850Z,2.00
2018-02-21T15:47:09.966Z,2.20
2018-02-21T15:49:37.977Z,2.30
2018-02-21T15:52:06.826Z,2.10
2018-02-21T15:54:34.918Z,2.20
2018-02-21T15:57:02.998Z,2.10
2018-02-21T15:59:32.386Z,2.10
2018-02-21T16:02:00.826Z,1.90
2018-02-21T16:04:28.882Z,2.00
2018-02-21T16:06:56.946Z,2.20
2018-02-21T16:09:25.010Z,2.20
2018-02-21T16:11:53.186Z,2.20
2018-02-21T16:14:21.251Z,1.90
2018-02-21T16:16:49.345Z,1.80
2018-02-21T16:19:17.515Z,1.80
2018-02-21T16:21:45.894Z,2.00
2018-02-21T16:24:15.071Z,1.60
2018-02-21T16:26:44.268Z,1.50
2018-02-21T16:29:12.369Z,1.50
2018-02-21T16:31:40.457Z,1.40
2018-02-21T16:34:08.531Z,1.40
2018-02-21T16:36:36.600Z,1.30
2018-02-21T16:39:04.678Z,1.30
2018-02-21T16:41:32.761Z,1.40
2018-02-21T16:44:00.821Z,1.20
2018-02-21T16:46:28.911Z,1.20
2018-02-21T16:48:56.970Z,1.20
2018-02-21T16:51:25.026Z,1.20
2018-02-21T16:53:58.598Z,1.10
2018-02-21T16:56:27.442Z,1.00
2018-02-21T16:58:55.531Z,1.10
2018-02-21T17:01:23.718Z,1.10
2018-02-21T17:03:52.311Z,1.10
2018-02-21T17:06:20.382Z,1.20
2018-02-21T17:08:48.442Z,1.10
2018-02-21T17:11:16.630Z,1.10
2018-02-21T17:13:45.599Z,1.20
2018-02-21T17:16:14.791Z,1.00
2018-02-21T17:18:42.866Z,1.00
2018-02-21T17:21:10.936Z,1.00
2018-02-21T17:23:39.002Z,1.10
2018-02-21T17:26:07.840Z,1.10
2018-02-21T17:28:35.909Z,1.00
2018-02-21T17:31:03.970Z,1.10
2018-02-21T17:33:32.077Z,1.20
2018-02-21T17:36:00.158Z,1.20
2018-02-21T17:38:28.226Z,1.10
2018-02-21T17:41:01.738Z,1.00
2018-02-21T17:43:29.916Z,0.90
2018-02-21T17:45:57.984Z,1.00
2018-02-21T17:48:26.044Z,0.90
2018-02-21T17:50:54.108Z,0.90
2018-02-21T17:53:22.186Z,0.90
2018-02-21T17:55:50.290Z,0.90
2018-02-21T17:58:18.366Z,0.90
2018-02-21T18:00:46.453Z,0.90
2018-02-21T18:03:16.251Z,1.00
2018-02-21T18:05:45.422Z,0.90
2018-02-21T18:08:13.549Z,0.90
2018-02-21T18:10:41.730Z,1.00
2018-02-21T18:13:09.953Z,1.20
2018-02-21T18:15:38.798Z,1.20
2018-02-21T18:18:06.996Z,1.40
2018-02-21T18:20:35.862Z,1.30
2018-02-21T18:23:04.089Z,1.20
2018-02-21T18:25:32.137Z,1.00
2018-02-21T18:28:00.230Z,1.00
2018-02-21T18:30:29.227Z,1.00
2018-02-21T18:32:58.089Z,1.10
2018-02-21T18:35:26.270Z,2.10
2018-02-21T18:37:54.349Z,3.00
2018-02-21T18:40:22.437Z,3.80
2018-02-21T18:42:50.504Z,4.40
2018-02-21T18:45:18.649Z,4.00
2018-02-21T18:47:46.806Z,3.50
2018-02-21T18:50:17.694Z,3.50
2018-02-21T18:52:46.778Z,3.90
2018-02-21T18:55:16.787Z,3.40
2018-02-21T18:57:46.852Z,2.70
2018-02-21T19:00:16.040Z,2.10
2018-02-21T19:02:44.114Z,1.70
2018-02-21T19:05:12.194Z,1.30
2018-02-21T19:07:40.351Z,1.50
2018-02-21T19:10:08.554Z,1.20
2018-02-21T19:12:36.621Z,1.10
2018-02-21T19:15:04.686Z,1.00
2018-02-21T19:17:32.929Z,0.90
2018-02-21T19:20:01.752Z,0.70
2018-02-21T19:22:29.849Z,0.60
2018-02-21T19:24:58.399Z,0.60
2018-02-21T19:27:26.609Z,0.70
2018-02-21T19:29:54.820Z,0.50
2018-02-21T19:32:22.973Z,0.70
2018-02-21T19:34:52.296Z,0.50
2018-02-21T19:37:21.176Z,0.50
2018-02-21T19:39:49.290Z,0.60
2018-02-21T19:42:18.130Z,0.60
2018-02-21T19:44:47.546Z,0.40
2018-02-21T19:47:16.833Z,0.40
2018-02-21T19:49:45.032Z,0.50
2018-02-21T19:52:13.152Z,0.30
2018-02-21T19:54:42.059Z,0.30
2018-02-21T19:57:10.233Z,0.30
2018-02-21T19:59:38.330Z,0.30
2018-02-21T20:02:06.434Z,0.20
2018-02-21T20:04:34.518Z,0.20
2018-02-21T20:07:02.605Z,0.10
2018-02-21T20:09:30.666Z,0.10
2018-02-21T20:11:58.946Z,0.00
2018-02-21T20:14:27.030Z,0.00
2018-02-21T20:16:55.129Z,0.10
2018-02-21T20:19:23.982Z,0.10
2018-02-21T20:21:53.160Z,0.10
2018-02-21T20:24:21.293Z,-0.10
2018-02-21T20:26:49.374Z,0.00
2018-02-21T20:29:17.470Z,-0.20
2018-02-21T20:31:47.433Z,-0.20
2018-02-21T20:34:15.626Z,-0.10
2018-02-21T20:36:43.761Z,-0.20
2018-02-21T20:39:11.830Z,-0.30
2018-02-21T20:41:39.894Z,-0.40
2018-02-21T20:44:08.745Z,-0.30
2018-02-21T20:46:36.926Z,-0.40
2018-02-21T20:49:05.014Z,-0.50
2018-02-21T20:51:33.118Z,-0.60
2018-02-21T20:54:01.978Z,-0.70
2018-02-21T20:56:30.059Z,-0.60
2018-02-21T20:58:58.232Z,-0.50
2018-02-21T21:01:26.407Z,-0.40
2018-02-21T21:03:55.239Z,-0.40
2018-02-21T21:06:24.073Z,-0.50
2018-02-21T21:08:52.357Z,-0.60
2018-02-21T21:11:20.444Z,-0.60
2018-02-21T21:13:48.510Z,-0.70
2018-02-21T21:16:16.590Z,-0.70
2018-02-21T21:18:44.686Z,-0.80
2018-02-21T21:21:12.782Z,-0.90
2018-02-21T21:23:40.861Z,-0.80
2018-02-21T21:26:08.983Z,-0.90
2018-02-21T21:28:37.070Z,-0.80
2018-02-21T21:31:05.172Z,-1.00
2018-02-21T21:33:33.346Z,-1.00
2018-02-21T21:36:01.508Z,-0.90
2018-02-21T21:38:29.601Z,-0.90
2018-02-21T21:40:57.738Z,-0.80
2018-02-21T21:43:25.832Z,-0.80
2018-02-21T21:45:54.030Z,-0.70
2018-02-21T21:48:22.101Z,-0.60
2018-02-21T21:50:50.289Z,-0.70
2018-02-21T21:53:19.493Z,-0.80
2018-02-21T21:55:48.699Z,-0.90
2018-02-21T21:58:16.940Z,-0.90
2018-02-21T22:00:46.040Z,-1.00
2018-02-21T22:03:14.158Z,-1.00
2018-02-21T22:05:42.238Z,-0.90
2018-02-21T22:08:10.454Z,-0.90
2018-02-21T22:10:39.410Z,-1.00
2018-02-21T22:13:07.574Z,-1.10
2018-02-21T22:15:35.760Z,-1.10
2018-02-21T22:18:03.950Z,-1.20
2018-02-21T22:20:32.194Z,-1.10
2018-02-21T22:23:00.254Z,-1.10
2018-02-21T22:25:29.093Z,-1.20
2018-02-21T22:27:57.357Z,-1.20
2018-02-21T22:30:25.421Z,-1.10
2018-02-21T22:32:53.500Z,-1.30
2018-02-21T22:35:21.677Z,-1.00
2018-02-21T22:37:49.742Z,-1.10
2018-02-21T22:40:18.998Z,-1.10
2018-02-21T22:42:47.069Z,-1.10
2018-02-21T22:45:15.151Z,-1.00
2018-02-21T22:47:43.314Z,-1.10
2018-02-21T22:50:11.482Z,-1.20
2018-02-21T22:52:40.989Z,-1.20
2018-02-21T22:55:09.071Z,-1.30
2018-02-21T22:57:37.142Z,-1.40
2018-02-21T23:00:05.225Z,-1.40
2018-02-21T23:02:34.218Z,-1.30
2018-02-21T23:05:02.406Z,-1.30
2018-02-21T23:07:30.550Z,-1.40
2018-02-21T23:09:58.626Z,-1.50
2018-02-21T23:12:26.758Z,-1.60
2018-02-21T23:14:54.849Z,-1.50
2018-02-21T23:17:23.875Z,-1.50
2018-02-21T23:19:51.970Z,-1.50
2018-02-21T23:22:20.387Z,-1.70
2018-02-21T23:24:48.565Z,-1.70
2018-02-21T23:27:16.744Z,-1.50
2018-02-21T23:29:44.936Z,-1.60
2018-02-21T23:32:13.005Z,-1.70
2018-02-21T23:34:41.089Z,-1.80
2018-02-21T23:37:09.939Z,-1.80
2018-02-21T23:39:38.052Z,-1.60
2018-02-21T23:42:07.651Z,-1.80
2018-02-21T23:44:35.730Z,-1.60
2018-02-21T23:47:03.805Z,-1.70
2018-02-21T23:49:32.074Z,-1.80
2018-02-21T23:52:00.139Z,-2.00
2018-02-21T23:54:28.223Z,-1.80
2018-02-21T23:56:56.310Z,-1.80
2018-02-21T23:59:24.468Z,-1.90
